Liege, Belgium

2:09 PM CET on February 14, 2016 (GMT +0100)
Maastricht-Aachen | | Change Station
CLOSE
Current Station
Airport
Location: Maastricht,
Elevation: 374 ft
Nearby Weather Stations

Elev 374 ft 50.91 °N, 5.76 °E | Updated 14 minutes ago

Overcast
Overcast
36 °F
Feels Like 31 °F
N
6
Wind Variable Wind from West

Today
High -- | Low -- °F
--% Chance of Precip.
Yesterday
High -- | Low -- °F
Precip. -- in
Pressure 29.24 in
Visibility 3.1 miles
Clouds Scattered Clouds 700 ft
Overcast 800 ft
Windchill 31 °F
Dew Point 34 °F
Humidity 93%
Rainfall 0.00 in
Snow Depth Not available.
7:53 AM 5:52 PM
Waxing Crescent, 41% visible
METAR EHBK 141255Z AUTO 26005KT 230V300 5000 BR SCT007 OVC008 02/01 Q0990 TEMPO 4500
Pressure 29.24 in
Visibility 3.1 miles
Clouds Scattered Clouds 700 ft
Overcast 800 ft
Windchill 31 °F
Dew Point 34 °F
Humidity 93%
Rainfall 0.00 in
Snow Depth Not available.
7:53 AM 5:52 PM
Waxing Crescent, 41% visible
METAR EHBK 141255Z AUTO 26005KT 230V300 5000 BR SCT007 OVC008 02/01 Q0990 TEMPO 4500

10-Day Weather Forecast

Almanac

Astronomy

Feb. 14, 2016 Rise Set
Actual Time
Civil Twilight
Nautical Twilight
Astronomical Twilight
Moon
Length of Visible Light
Length of Day
Tomorrow will be .
, % of the Moon is Illuminated

Today's Extremes

Country Highs Country Lows

Community

WunderPhotos

Upload Photos

1,892,777 photos uploaded!

WunderBlog® & News

Nearby

Air Quality

  Air Quality AQ Index Pollutant
Not available.

Snow Depth

Station Depth Elevation

Earthquake Activity

City Distance Mag. Time & Date
Minimum magnitude displayed is 2.5.

Coastal Water Temperatures

Place Temperature

Stations

Nearby Weather Stations

Station Location Temp. Windchill Dew Point Humidity Wind Precip. Elev Updated Type